Kaaawa, HI (96730)

10:13 PM HST on August 21, 2017 (GMT -1000)
Kahuluu | | Change Station
Active Advisory: Special Statement

Elev 59 ft 21.47 °N, 157.84 °W | Updated 1 minute ago

Mostly Cloudy
Mostly Cloudy
80.1 °F
Feels Like 86 °F
N
6.7
Wind Variable Wind from ESE
Gusts 9.4 mph

Today
High -- | Low -- °F
--% Chance of Precip.
Yesterday
High -- | Low -- °F
Precip. -- in
Pressure 29.98 in
Visibility 7.0 miles
Clouds Few 1000 ft
Scattered Clouds 2000 ft
Scattered Clouds 3000 ft
Heat Index 86 °F
Dew Point 77 °F
Humidity 91%
Rainfall 0.06 in
Snow Depth Not available.
6:11 AM 6:56 PM
New Moon, 0% visible
METAR PHNG 220657Z 07009KT 7SM FEW010 SCT020 SCT030 28/23 A2999 RMK RAE06 SLP151 P0000 T02780233
Pressure 29.98 in
Visibility 7.0 miles
Clouds Few 1000 ft
Scattered Clouds 2000 ft
Scattered Clouds 3000 ft
Heat Index 86 °F
Dew Point 77 °F
Humidity 91%
Rainfall 0.06 in
Snow Depth Not available.
6:11 AM 6:56 PM
New Moon, 0% visible
METAR PHNG 220657Z 07009KT 7SM FEW010 SCT020 SCT030 28/23 A2999 RMK RAE06 SLP151 P0000 T02780233

Get Your Daily Forecast Email!

Thanks for signing up!

Be on the lookout for a verification email in your inbox.

You'll start receiving severe weather alerts in your inbox..

×

10-Day Weather Forecast

Almanac

Astronomy

Aug. 21, 2017 Rise Set
Actual Time
Civil Twilight
Nautical Twilight
Astronomical Twilight
Moon
Length of Visible Light
Length of Day
Tomorrow will be .
, % of the Moon is Illuminated

Today's Extremes

State Highs State Lows

Community

WunderPhotos

Category 6

Welcome to Category 6. This is the collective home for Weather Underground's featured writeups by Dr. Jeff Masters (right), Bob Henson (left), Chris Burt, and other regular contributors.

Nearby

Air Quality

  Air Quality AQ Index Pollutant
Not available.

Snow Depth

Station Depth Elevation

Earthquake Activity

City Distance Mag. Time & Date
Minimum magnitude displayed is 2.5.

Coastal Water Temperatures

Place Temperature

Stations

Nearby Weather Stations

Station Location Temp. Windchill Dew Point Humidity Wind Precip. Elev Updated Type
                   

Watches & Warnings

Special Statement
Issued: 6:40 PM HST Aug. 21, 2017 – National Weather Service

... Coastal flooding possible through Wednesday...

The sea level around the islands is running as much as a foot
above the values shown by tide predictions due to an eddy moving
west through the area. The peak high tides of the month will roll
in on top of the elevated sea level.

Peak water levels will occur during the afternoons and evenings.
During this time, you may encounter flooding of beach areas that
are normally dry and inundation of docks, boat ramps and other
coastal infrastructure. Be prepared for salt water covering some
roads. Coastal flooding will end during the second half of next
week as the peak daily tides diminish.

For details on the times and heights of The Tides, please see
noaas tides and currents web site.

Donaldson